METAR Data
IDs: Format: Raw Decoded Include TAF

Data at: 2150 UTC 02 Aug 2021

EGDM 022050Z AUTO 10002KT //// // BKN130/// 13/12 Q1014